Time;durP1;ratioP1;P1;durP2;ratioP2;P2;SDS_P1;SDS_P2;PMS_P1;PMS_P2;Temp;Humidity;BMP_temperature;BMP_pressure;BME280_temperature;BME280_humidity;BME280_pressure;Samples;Min_cycle;Max_cycle;Signal;HPM_P1;HPM_P2
2022/08/29 00:00:31;;;;;;;4.00;1.48;;;13.90;82.00;;;;;;4971163;28;20030;-82
2022/08/29 00:02:58;;;;;;;5.45;1.65;;;14.00;80.90;;;;;;5000867;28;20041;-82
2022/08/29 00:05:28;;;;;;;4.80;1.60;;;14.00;80.70;;;;;;4993201;28;20045;-81
2022/08/29 00:07:53;;;;;;;5.68;1.50;;;14.00;79.70;;;;;;4966656;28;20030;-81
2022/08/29 00:10:19;;;;;;;5.60;1.80;;;14.00;82.30;;;;;;4974840;28;20110;-82
2022/08/29 00:12:45;;;;;;;3.00;1.33;;;14.00;80.10;;;;;;4974044;28;20031;-79
2022/08/29 00:15:11;;;;;;;1.73;1.25;;;14.00;78.80;;;;;;4967305;28;20022;-82
2022/08/29 00:17:36;;;;;;;4.47;1.52;;;14.00;78.80;;;;;;4988146;28;20086;-82
2022/08/29 00:20:03;;;;;;;7.80;1.50;;;14.00;80.30;;;;;;4979289;28;20063;-82
2022/08/29 00:22:29;;;;;;;3.95;1.70;;;13.90;82.80;;;;;;4983427;28;20462;-82
2022/08/29 00:24:55;;;;;;;4.30;1.35;;;13.90;77.60;;;;;;4974097;28;20034;-82
2022/08/29 00:27:20;;;;;;;4.93;1.50;;;14.00;77.00;;;;;;4969881;28;20059;-80
2022/08/29 00:29:46;;;;;;;3.13;1.30;;;13.90;80.30;;;;;;4978207;28;20026;-82
2022/08/29 00:32:11;;;;;;;4.57;1.70;;;13.80;79.70;;;;;;4981500;28;20495;-82
2022/08/29 00:34:37;;;;;;;8.98;1.98;;;13.70;83.70;;;;;;4960437;28;20082;-82
2022/08/29 00:37:03;;;;;;;4.72;1.92;;;13.60;86.40;;;;;;4957848;28;20018;-82
2022/08/29 00:39:31;;;;;;;3.28;1.38;;;13.60;90.10;;;;;;4980879;28;20030;-82
2022/08/29 00:41:57;;;;;;;4.88;1.45;;;13.50;90.00;;;;;;4991361;28;20034;-81
2022/08/29 00:44:22;;;;;;;3.75;1.83;;;13.40;90.40;;;;;;4993637;28;20041;-80
2022/08/29 00:46:53;;;;;;;4.38;1.67;;;13.40;92.10;;;;;;4986092;28;20030;-80
2022/08/29 00:49:44;;;;;;;2.80;1.73;;;13.40;92.50;;;;;;4981984;28;20042;-79
2022/08/29 00:52:18;;;;;;;5.18;1.70;;;13.30;91.10;;;;;;4970557;28;20037;-79
2022/08/29 00:54:46;;;;;;;5.15;1.80;;;13.40;90.40;;;;;;4971922;28;20026;-81
2022/08/29 00:57:12;;;;;;;5.07;1.58;;;13.30;91.40;;;;;;4953273;28;20065;-80
2022/08/29 00:59:38;;;;;;;2.08;1.65;;;13.30;89.40;;;;;;4972131;28;20448;-81
2022/08/29 01:02:04;;;;;;;5.03;1.90;;;13.30;86.00;;;;;;4970350;28;20289;-81
2022/08/29 01:04:30;;;;;;;4.25;1.63;;;13.30;84.40;;;;;;4986169;28;20502;-81
2022/08/29 01:06:56;;;;;;;6.47;1.67;;;13.20;85.90;;;;;;4958397;28;20109;-80
2022/08/29 01:09:22;;;;;;;5.40;1.50;;;13.20;85.00;;;;;;4969172;28;20129;-82
2022/08/29 01:14:32;;;;;;;3.85;2.08;;;13.10;84.00;;;;;;4983626;28;20037;-81
2022/08/29 01:16:57;;;;;;;2.67;1.60;;;13.00;85.30;;;;;;4955040;28;20037;-81
2022/08/29 01:19:30;;;;;;;3.75;1.80;;;12.90;90.70;;;;;;4989628;28;20065;-81
2022/08/29 01:22:02;;;;;;;6.95;1.80;;;12.90;89.30;;;;;;4968790;28;20125;-81
2022/08/29 01:24:34;;;;;;;3.22;1.73;;;12.80;90.00;;;;;;4980565;28;20098;-81
2022/08/29 01:26:59;;;;;;;3.22;1.85;;;12.80;90.30;;;;;;4967906;28;20591;-80
2022/08/29 01:29:25;;;;;;;3.60;1.55;;;12.70;88.90;;;;;;4973553;28;20033;-81
2022/08/29 01:31:50;;;;;;;4.43;1.80;;;12.60;92.50;;;;;;4974551;28;20493;-81
2022/08/29 01:34:17;;;;;;;5.43;1.90;;;12.50;95.10;;;;;;4986852;28;20036;-80
2022/08/29 01:36:54;;;;;;;3.58;2.05;;;12.50;94.80;;;;;;4973096;28;20109;-81
2022/08/29 01:39:27;;;;;;;7.95;2.17;;;12.50;93.50;;;;;;4989903;28;20573;-80
2022/08/29 01:41:53;;;;;;;6.72;2.25;;;12.50;94.60;;;;;;4968877;28;20030;-81
2022/08/29 01:44:20;;;;;;;5.88;2.05;;;12.50;95.90;;;;;;4965698;28;20084;-81
2022/08/29 01:46:50;;;;;;;3.53;1.92;;;12.40;96.70;;;;;;4956948;28;20061;-81
2022/08/29 01:49:16;;;;;;;6.68;2.05;;;12.40;97.30;;;;;;4972515;28;20405;-81
2022/08/29 01:51:42;;;;;;;5.70;2.05;;;12.50;92.40;;;;;;4981411;28;20026;-80
2022/08/29 01:54:09;;;;;;;3.40;1.85;;;12.50;93.40;;;;;;4987840;28;20556;-82
2022/08/29 01:56:37;;;;;;;2.50;1.17;;;12.50;91.30;;;;;;4984951;28;20038;-80
2022/08/29 01:59:04;;;;;;;7.03;2.00;;;12.60;91.00;;;;;;4958310;28;20033;-81
2022/08/29 02:01:32;;;;;;;6.53;1.70;;;12.50;90.90;;;;;;4984250;28;20081;-81
2022/08/29 02:03:58;;;;;;;5.78;1.77;;;12.40;93.60;;;;;;4974987;28;20050;-80
2022/08/29 02:06:25;;;;;;;6.97;1.80;;;12.20;96.60;;;;;;4959043;28;20375;-80
2022/08/29 02:08:50;;;;;;;4.90;1.63;;;12.10;96.90;;;;;;4975356;28;20034;-81
2022/08/29 02:11:17;;;;;;;6.03;2.75;;;12.10;96.80;;;;;;4973671;28;20030;-80
2022/08/29 02:13:45;;;;;;;6.53;1.83;;;12.20;93.80;;;;;;4974335;28;20038;-81
2022/08/29 02:16:11;;;;;;;5.28;2.20;;;12.20;94.90;;;;;;4977872;28;20087;-81
2022/08/29 02:18:37;;;;;;;5.50;2.20;;;12.00;98.00;;;;;;4972906;28;20034;-81
2022/08/29 02:21:03;;;;;;;4.45;2.30;;;11.90;98.70;;;;;;4974673;28;20036;-81
2022/08/29 02:23:29;;;;;;;3.70;1.48;;;11.80;99.30;;;;;;4962785;28;20465;-80
2022/08/29 02:25:54;;;;;;;4.25;2.10;;;11.80;95.60;;;;;;4972914;28;20104;-80
2022/08/29 02:28:21;;;;;;;3.40;1.70;;;12.00;94.10;;;;;;4975295;28;20113;-80
2022/08/29 02:30:51;;;;;;;5.32;1.95;;;12.10;92.90;;;;;;4972056;28;20037;-81
2022/08/29 02:33:17;;;;;;;5.88;2.13;;;12.00;95.60;;;;;;4976596;28;20048;-81
2022/08/29 02:35:43;;;;;;;2.38;1.52;;;12.00;95.60;;;;;;4970025;28;20033;-81
2022/08/29 02:38:09;;;;;;;5.10;1.65;;;12.00;93.90;;;;;;4979950;28;20080;-81
2022/08/29 02:40:34;;;;;;;4.45;1.38;;;12.00;92.60;;;;;;4958128;28;20443;-77
2022/08/29 02:43:00;;;;;;;3.83;1.90;;;12.00;91.70;;;;;;4976176;28;20537;-77
2022/08/29 02:45:26;;;;;;;3.20;1.50;;;12.00;92.40;;;;;;4967047;28;20030;-77
2022/08/29 02:47:51;;;;;;;5.65;1.70;;;12.00;92.40;;;;;;4970347;28;20038;-80
2022/08/29 02:50:17;;;;;;;4.80;2.10;;;12.10;94.60;;;;;;4969351;28;20029;-81
2022/08/29 02:52:43;;;;;;;5.60;2.42;;;11.90;92.60;;;;;;4981158;28;20030;-80
2022/08/29 02:55:14;;;;;;;4.63;1.73;;;11.90;96.60;;;;;;4958673;28;20026;-81
2022/08/29 02:57:40;;;;;;;4.65;2.15;;;11.70;98.60;;;;;;4971580;28;20022;-80
2022/08/29 03:00:09;;;;;;;7.47;1.75;;;11.60;98.70;;;;;;4975419;28;20033;-80
2022/08/29 03:02:35;;;;;;;3.15;1.83;;;11.60;95.20;;;;;;4951976;28;20559;-79
2022/08/29 03:05:01;;;;;;;2.50;1.55;;;11.80;95.50;;;;;;4971485;28;20037;-80
2022/08/29 03:07:28;;;;;;;3.40;1.70;;;12.10;94.40;;;;;;4984772;28;20375;-80
2022/08/29 03:09:53;;;;;;;4.28;2.03;;;12.10;92.90;;;;;;4978528;28;20050;-80
2022/08/29 03:12:19;;;;;;;3.65;1.80;;;11.90;93.40;;;;;;4972713;28;20030;-79
2022/08/29 03:14:45;;;;;;;3.10;1.55;;;11.70;95.60;;;;;;4967189;28;20053;-80
2022/08/29 03:17:10;;;;;;;4.93;1.60;;;11.70;94.20;;;;;;4964111;28;20481;-80
2022/08/29 03:19:36;;;;;;;5.10;2.00;;;11.70;93.10;;;;;;4971065;28;20494;-80
2022/08/29 03:22:02;;;;;;;4.68;1.33;;;11.60;95.00;;;;;;4987734;28;20423;-80
2022/08/29 03:24:27;;;;;;;5.97;2.30;;;11.60;92.60;;;;;;4988862;28;20037;-80
2022/08/29 03:26:53;;;;;;;3.42;1.45;;;11.60;92.60;;;;;;4989123;28;20052;-79
2022/08/29 03:29:18;;;;;;;3.63;1.50;;;11.30;93.20;;;;;;4985607;28;20121;-80
2022/08/29 03:31:44;;;;;;;4.60;1.80;;;11.40;93.00;;;;;;4974685;28;20038;-80
2022/08/29 03:34:09;;;;;;;3.95;1.90;;;11.60;93.80;;;;;;4960519;28;20586;-80
2022/08/29 03:36:35;;;;;;;4.82;2.25;;;11.50;94.80;;;;;;4973849;28;20037;-80
2022/08/29 03:39:01;;;;;;;4.20;2.28;;;11.40;96.40;;;;;;4971791;28;20037;-80
2022/08/29 03:41:27;;;;;;;2.80;1.60;;;11.40;94.40;;;;;;4955236;28;20030;-80
2022/08/29 03:43:58;;;;;;;3.40;2.00;;;11.40;93.60;;;;;;4976594;28;20116;-79
2022/08/29 03:46:24;;;;;;;4.22;2.10;;;11.40;95.60;;;;;;4955676;28;20561;-79
2022/08/29 03:48:50;;;;;;;4.25;2.30;;;11.30;95.50;;;;;;4975992;28;20053;-79
2022/08/29 03:51:16;;;;;;;4.93;2.33;;;11.20;98.90;;;;;;4973101;28;20061;-78
2022/08/29 03:53:41;;;;;;;3.72;2.03;;;11.20;99.10;;;;;;4971574;28;20030;-79
2022/08/29 03:56:07;;;;;;;5.90;2.65;;;11.20;98.00;;;;;;4987806;28;20157;-80
2022/08/29 03:58:33;;;;;;;5.30;3.22;;;11.10;98.70;;;;;;4974074;28;20037;-80
2022/08/29 04:00:58;;;;;;;5.15;2.38;;;11.10;98.60;;;;;;4973522;28;20087;-81
2022/08/29 04:03:25;;;;;;;3.38;1.90;;;11.00;97.30;;;;;;4956032;28;20041;-80
2022/08/29 04:05:50;;;;;;;6.45;1.70;;;10.90;95.80;;;;;;4970643;28;20085;-81
2022/08/29 04:08:16;;;;;;;8.43;1.90;;;11.00;94.30;;;;;;4981361;28;20035;-80
2022/08/29 04:10:41;;;;;;;4.22;1.80;;;11.00;93.80;;;;;;4970241;28;20058;-79
2022/08/29 04:13:07;;;;;;;4.63;2.50;;;11.10;93.80;;;;;;4970167;28;20065;-80
2022/08/29 04:15:33;;;;;;;4.15;2.30;;;11.00;95.50;;;;;;4947586;28;20033;-79
2022/08/29 04:18:00;;;;;;;6.38;2.58;;;10.90;97.90;;;;;;4978975;28;20340;-80
2022/08/29 04:20:30;;;;;;;5.13;2.45;;;10.90;99.00;;;;;;4988399;28;20026;-80
2022/08/29 04:22:55;;;;;;;7.00;2.40;;;10.90;94.90;;;;;;4984546;28;20084;-80
2022/08/29 04:25:22;;;;;;;2.72;2.10;;;10.90;94.10;;;;;;4985026;28;20042;-80
2022/08/29 04:27:48;;;;;;;3.85;2.08;;;10.90;95.40;;;;;;4988653;28;20045;-79
2022/08/29 04:30:15;;;;;;;6.70;2.22;;;11.00;94.40;;;;;;4966873;28;20034;-80
2022/08/29 04:32:40;;;;;;;3.58;2.30;;;11.10;95.70;;;;;;4973785;28;20034;-80
2022/08/29 04:35:07;;;;;;;5.28;2.38;;;11.00;96.10;;;;;;4972047;28;20056;-79
2022/08/29 04:37:35;;;;;;;5.95;3.00;;;10.90;96.80;;;;;;4972320;28;20489;-80
2022/08/29 04:40:01;;;;;;;6.22;2.72;;;10.80;97.20;;;;;;4966384;28;20057;-79
2022/08/29 04:42:27;;;;;;;4.10;2.67;;;10.70;99.90;;;;;;4947460;28;20058;-81
2022/08/29 04:44:52;;;;;;;6.32;2.50;;;10.60;99.90;;;;;;4990738;28;20034;-81
2022/08/29 04:47:21;;;;;;;8.35;3.72;;;10.60;99.90;;;;;;4974243;28;20079;-81
2022/08/29 04:49:48;;;;;;;6.40;3.13;;;10.50;99.90;;;;;;4973813;28;20045;-81
2022/08/29 04:52:14;;;;;;;4.45;2.80;;;10.60;99.90;;;;;;4979083;28;20045;-81
2022/08/29 04:54:39;;;;;;;4.40;2.70;;;10.60;99.90;;;;;;4959303;28;20038;-80
2022/08/29 04:57:05;;;;;;;5.90;2.70;;;10.60;99.90;;;;;;4960627;28;20465;-82
2022/08/29 04:59:31;;;;;;;5.07;2.90;;;10.60;99.90;;;;;;4969173;28;20034;-82
2022/08/29 05:01:56;;;;;;;8.32;3.20;;;10.70;99.30;;;;;;4976913;28;20402;-82
2022/08/29 05:04:22;;;;;;;9.32;3.08;;;10.70;99.90;;;;;;4966389;28;20041;-80
2022/08/29 05:06:47;;;;;;;5.80;2.85;;;10.70;99.90;;;;;;4959508;28;20042;-83
2022/08/29 05:09:13;;;;;;;5.25;2.90;;;10.70;99.90;;;;;;4980039;28;20034;-84
2022/08/29 05:11:40;;;;;;;7.57;3.42;;;10.80;99.90;;;;;;4988557;28;20031;-83
2022/08/29 05:14:05;;;;;;;7.53;3.13;;;10.80;99.90;;;;;;4964205;28;20038;-83
2022/08/29 05:16:35;;;;;;;6.95;2.70;;;10.80;99.90;;;;;;4980053;28;20032;-82
2022/08/29 05:19:02;;;;;;;6.05;3.40;;;10.90;99.90;;;;;;4985866;28;20115;-82
2022/08/29 05:21:30;;;;;;;7.72;3.80;;;10.90;99.90;;;;;;4980706;28;20034;-81
2022/08/29 05:23:56;;;;;;;7.00;3.30;;;10.90;99.90;;;;;;4988589;28;20615;-81
2022/08/29 05:26:22;;;;;;;6.57;2.78;;;10.90;99.90;;;;;;4989858;28;20026;-81
2022/08/29 05:28:48;;;;;;;8.40;3.00;;;11.00;99.90;;;;;;4975078;28;20053;-84
2022/08/29 05:31:14;;;;;;;6.53;2.83;;;11.00;98.70;;;;;;4992894;28;20029;-83
2022/08/29 05:33:40;;;;;;;7.40;3.15;;;11.10;98.70;;;;;;4976255;28;20036;-83
2022/08/29 05:36:06;;;;;;;3.20;2.03;;;11.10;97.80;;;;;;4962521;28;20128;-80
2022/08/29 05:38:32;;;;;;;3.30;2.05;;;11.20;96.40;;;;;;4998579;28;20480;-80
2022/08/29 05:40:57;;;;;;;9.35;3.40;;;11.20;96.10;;;;;;4992291;28;20442;-81
2022/08/29 05:43:24;;;;;;;8.10;3.45;;;11.30;99.50;;;;;;4989332;28;20097;-81
2022/08/29 05:45:49;;;;;;;9.32;3.25;;;11.30;98.40;;;;;;5004861;28;20029;-80
2022/08/29 05:48:17;;;;;;;6.93;3.58;;;11.20;99.90;;;;;;4975310;28;20100;-80
2022/08/29 05:50:42;;;;;;;8.40;3.65;;;11.30;99.90;;;;;;4978537;28;20114;-80
2022/08/29 05:53:09;;;;;;;6.63;2.88;;;11.40;99.90;;;;;;4979214;28;20112;-82
2022/08/29 05:55:41;;;;;;;6.75;4.15;;;11.40;99.90;;;;;;4975708;28;20056;-82
2022/08/29 05:58:07;;;;;;;6.20;3.65;;;11.50;99.90;;;;;;4974539;28;20053;-82
2022/08/29 06:00:32;;;;;;;8.10;3.45;;;11.50;99.60;;;;;;4974438;28;20497;-82
2022/08/29 06:02:58;;;;;;;7.32;3.35;;;11.60;99.90;;;;;;4990215;28;20085;-82
2022/08/29 06:05:24;;;;;;;5.18;2.03;;;11.70;99.90;;;;;;4986925;28;20839;-82
2022/08/29 06:07:49;;;;;;;5.90;2.88;;;11.80;97.80;;;;;;4977098;28;20070;-82
2022/08/29 06:10:15;;;;;;;6.00;3.08;;;11.90;99.90;;;;;;4954773;28;20037;-83
2022/08/29 06:12:41;;;;;;;5.60;3.55;;;12.00;98.80;;;;;;4970950;28;20038;-82
2022/08/29 06:15:07;;;;;;;7.07;3.25;;;12.00;99.20;;;;;;4998463;28;20033;-80
2022/08/29 06:17:33;;;;;;;5.30;3.22;;;12.10;99.70;;;;;;4954745;28;20037;-82
2022/08/29 06:19:58;;;;;;;8.30;3.33;;;12.20;98.30;;;;;;4983364;28;20054;-82
2022/08/29 06:22:24;;;;;;;7.75;3.60;;;12.30;98.10;;;;;;4986136;28;20084;-81
2022/08/29 06:24:51;;;;;;;11.23;4.15;;;12.40;97.10;;;;;;4982856;28;20045;-81
2022/08/29 06:27:17;;;;;;;6.30;4.05;;;12.60;98.30;;;;;;4987525;28;20131;-81
2022/08/29 06:29:43;;;;;;;8.10;4.20;;;12.70;97.60;;;;;;4985580;28;20057;-81
2022/08/29 06:32:08;;;;;;;7.53;3.92;;;12.80;97.80;;;;;;4981512;28;20030;-82
2022/08/29 06:34:34;;;;;;;10.65;3.60;;;13.00;98.60;;;;;;4968210;28;20030;-82
2022/08/29 06:37:00;;;;;;;4.65;2.88;;;13.20;97.10;;;;;;4975640;28;20029;-82
2022/08/29 06:39:25;;;;;;;12.13;4.63;;;13.40;96.70;;;;;;4982197;28;20062;-82
2022/08/29 06:41:51;;;;;;;5.32;2.95;;;13.70;97.70;;;;;;4965571;28;20113;-81
2022/08/29 06:44:17;;;;;;;4.25;1.80;;;13.80;96.20;;;;;;4976821;28;20033;-81
2022/08/29 06:46:46;;;;;;;3.13;2.05;;;13.90;95.20;;;;;;4969485;28;20060;-81
2022/08/29 06:49:12;;;;;;;7.88;3.22;;;14.00;95.80;;;;;;4986893;28;20049;-81
2022/08/29 06:51:39;;;;;;;4.97;2.92;;;14.20;96.20;;;;;;4984577;28;20034;-82
2022/08/29 06:54:06;;;;;;;3.92;2.22;;;14.20;95.80;;;;;;4970275;28;20121;-82
2022/08/29 06:56:31;;;;;;;2.92;2.30;;;14.30;93.90;;;;;;4968385;28;20449;-82
2022/08/29 06:58:57;;;;;;;3.65;1.95;;;14.40;94.00;;;;;;4989785;28;20179;-81
2022/08/29 07:01:25;;;;;;;2.90;1.73;;;14.50;93.30;;;;;;4988413;28;20049;-82
2022/08/29 07:03:55;;;;;;;2.58;1.58;;;14.60;93.70;;;;;;4980021;28;20624;-82
2022/08/29 07:06:20;;;;;;;7.35;1.70;;;14.70;92.90;;;;;;4971364;28;20061;-82
2022/08/29 07:08:46;;;;;;;4.28;1.60;;;14.70;92.70;;;;;;4975158;28;20121;-81
2022/08/29 07:11:11;;;;;;;7.13;3.67;;;14.80;91.90;;;;;;4959431;28;20042;-81
2022/08/29 07:13:38;;;;;;;4.63;1.92;;;15.00;93.80;;;;;;4973194;28;20490;-83
2022/08/29 07:16:08;;;;;;;10.73;4.25;;;15.10;92.70;;;;;;4970949;28;20030;-81
2022/08/29 07:18:34;;;;;;;6.10;3.08;;;15.20;94.20;;;;;;4955462;28;20034;-82
2022/08/29 07:21:04;;;;;;;9.45;4.45;;;15.30;93.70;;;;;;4968758;28;20128;-82
2022/08/29 07:23:31;;;;;;;6.93;3.45;;;15.50;95.20;;;;;;4970681;28;20037;-81
2022/08/29 07:26:08;;;;;;;9.85;4.32;;;15.60;94.40;;;;;;4955744;28;20110;-81
2022/08/29 07:28:34;;;;;;;4.22;2.20;;;15.70;94.30;;;;;;4980313;28;20030;-82
2022/08/29 07:31:03;;;;;;;5.70;2.75;;;15.90;93.10;;;;;;4966643;28;20029;-83
2022/08/29 07:33:30;;;;;;;8.05;4.03;;;16.00;93.60;;;;;;4982553;28;20741;-82
2022/08/29 07:35:59;;;;;;;15.70;4.55;;;16.20;94.90;;;;;;4985227;28;20033;-82
2022/08/29 07:38:25;;;;;;;12.63;5.15;;;16.40;95.90;;;;;;4973011;28;20057;-82
2022/08/29 07:41:05;;;;;;;12.77;4.03;;;16.50;96.90;;;;;;4981673;28;20136;-81
2022/08/29 07:43:31;;;;;;;10.48;4.40;;;16.70;96.40;;;;;;4980956;28;20049;-84
2022/08/29 07:45:57;;;;;;;16.45;4.13;;;16.80;96.30;;;;;;4973019;28;20454;-81
2022/08/29 07:48:23;;;;;;;9.85;3.40;;;16.90;97.00;;;;;;4987746;28;20034;-82
2022/08/29 07:50:49;;;;;;;9.35;2.63;;;17.00;96.60;;;;;;4968186;28;20023;-83
2022/08/29 07:53:16;;;;;;;6.85;3.00;;;17.10;94.30;;;;;;4967421;28;20121;-83
2022/08/29 07:55:42;;;;;;;7.88;3.50;;;17.20;95.70;;;;;;4978874;28;20138;-83
2022/08/29 07:58:08;;;;;;;10.05;3.15;;;17.40;95.20;;;;;;4945341;28;20039;-83
2022/08/29 08:00:34;;;;;;;11.13;3.47;;;17.50;95.40;;;;;;5005476;28;20437;-82
2022/08/29 08:02:59;;;;;;;11.35;3.30;;;17.60;94.90;;;;;;4987731;28;20030;-81
2022/08/29 08:05:25;;;;;;;5.85;2.80;;;17.70;94.80;;;;;;4981611;28;20064;-83
2022/08/29 08:07:50;;;;;;;10.00;3.70;;;17.80;95.30;;;;;;4984986;28;20030;-83
2022/08/29 08:10:18;;;;;;;9.82;3.88;;;17.90;95.70;;;;;;4984831;28;20034;-82
2022/08/29 08:12:44;;;;;;;12.00;3.78;;;18.10;95.70;;;;;;4973279;28;20065;-82
2022/08/29 08:15:09;;;;;;;6.00;2.78;;;18.20;94.40;;;;;;4957173;28;20038;-82
2022/08/29 08:17:35;;;;;;;8.15;3.08;;;18.40;94.90;;;;;;4980666;28;20110;-82
2022/08/29 08:20:03;;;;;;;7.80;2.80;;;18.60;95.00;;;;;;4983461;28;20037;-81
2022/08/29 08:22:29;;;;;;;9.10;3.67;;;18.70;94.30;;;;;;4982466;28;20038;-82
2022/08/29 08:24:54;;;;;;;11.52;3.70;;;19.10;95.80;;;;;;4985419;28;20046;-83
2022/08/29 08:27:20;;;;;;;10.48;4.13;;;19.40;94.60;;;;;;4980309;28;20048;-83
2022/08/29 08:29:46;;;;;;;12.02;2.85;;;19.70;94.90;;;;;;4986726;28;20109;-83
2022/08/29 08:32:11;;;;;;;9.00;3.00;;;20.00;94.80;;;;;;4983889;28;20037;-84
2022/08/29 08:34:37;;;;;;;7.32;2.20;;;20.20;94.10;;;;;;4970200;28;20089;-83
2022/08/29 08:37:06;;;;;;;4.97;2.20;;;20.40;91.60;;;;;;4973318;28;20037;-83
2022/08/29 08:39:32;;;;;;;6.95;2.40;;;20.30;93.00;;;;;;4966923;28;20030;-81
2022/08/29 08:42:19;;;;;;;10.68;2.78;;;20.60;93.40;;;;;;4980685;28;20548;-84
2022/08/29 08:45:04;;;;;;;8.52;2.42;;;20.80;93.10;;;;;;4971434;28;20037;-84
2022/08/29 08:47:36;;;;;;;4.75;1.95;;;21.00;92.40;;;;;;4967734;28;20398;-83
2022/08/29 08:50:14;;;;;;;7.88;2.33;;;21.20;91.20;;;;;;4972503;28;20168;-84
2022/08/29 08:52:58;;;;;;;9.02;2.53;;;21.30;90.20;;;;;;4956929;28;20394;-85
2022/08/29 08:55:27;;;;;;;8.98;2.20;;;21.60;89.80;;;;;;4969161;28;20030;-84
2022/08/29 08:58:09;;;;;;;9.48;2.22;;;21.70;90.40;;;;;;4970632;28;20101;-83
2022/08/29 09:00:42;;;;;;;7.93;2.03;;;21.80;90.20;;;;;;4970305;28;20498;-84
2022/08/29 09:03:34;;;;;;;7.30;2.60;;;21.90;88.30;;;;;;4971551;28;20512;-84
2022/08/29 09:06:11;;;;;;;6.72;2.47;;;22.10;88.40;;;;;;4956908;28;20084;-84
2022/08/29 09:08:36;;;;;;;8.32;3.03;;;22.30;87.70;;;;;;4971727;28;20084;-84
2022/08/29 09:11:11;;;;;;;10.65;2.80;;;22.50;87.60;;;;;;4978348;28;20029;-85
2022/08/29 09:13:56;;;;;;;7.82;2.63;;;22.80;85.80;;;;;;4985612;28;20545;-85
2022/08/29 09:16:30;;;;;;;8.97;2.70;;;23.00;84.40;;;;;;4986452;28;20026;-85
2022/08/29 09:18:59;;;;;;;9.68;2.65;;;23.40;80.80;;;;;;4968438;28;20331;-87
2022/08/29 09:21:25;;;;;;;18.30;2.95;;;23.60;78.40;;;;;;4969433;28;20053;-86
2022/08/29 09:23:53;;;;;;;6.03;2.38;;;23.60;76.20;;;;;;4974685;28;20377;-86
2022/08/29 09:26:20;;;;;;;9.35;2.80;;;23.80;75.00;;;;;;4969214;28;20057;-85
2022/08/29 09:28:46;;;;;;;4.03;1.85;;;23.80;77.40;;;;;;4987621;28;20038;-86
2022/08/29 09:31:23;;;;;;;8.13;2.53;;;23.80;75.80;;;;;;4971526;28;20469;-86
2022/08/29 09:33:57;;;;;;;5.22;1.92;;;24.00;78.30;;;;;;4974323;28;20535;-87
2022/08/29 09:36:43;;;;;;;6.55;2.65;;;24.30;76.80;;;;;;4970976;28;20035;-85
2022/08/29 09:39:11;;;;;;;8.20;2.08;;;24.20;77.40;;;;;;4976630;28;20120;-87
2022/08/29 09:41:37;;;;;;;14.05;2.60;;;24.60;74.80;;;;;;4996095;28;20030;-86
2022/08/29 09:44:03;;;;;;;5.75;2.55;;;24.70;73.20;;;;;;4968024;28;20063;-86
2022/08/29 09:46:28;;;;;;;10.13;2.60;;;24.90;72.20;;;;;;4968685;28;20034;-86
2022/08/29 09:49:02;;;;;;;6.03;2.50;;;24.90;71.10;;;;;;4982736;28;20049;-83
2022/08/29 09:51:36;;;;;;;7.03;2.30;;;24.80;71.20;;;;;;4977178;28;20486;-86
2022/08/29 09:54:23;;;;;;;6.10;2.28;;;24.90;71.40;;;;;;4969745;28;20041;-86
2022/08/29 09:57:07;;;;;;;7.68;1.77;;;24.90;70.30;;;;;;4977001;28;20061;-87
2022/08/29 09:59:38;;;;;;;3.67;2.05;;;24.90;70.20;;;;;;4961851;28;20026;-86
2022/08/29 10:02:15;;;;;;;11.23;2.40;;;25.00;69.50;;;;;;4961812;28;20030;-88
2022/08/29 10:04:42;;;;;;;10.20;2.85;;;25.00;69.60;;;;;;4971193;28;20050;-86
2022/08/29 10:07:28;;;;;;;11.20;2.50;;;24.90;69.70;;;;;;4957839;28;20033;-87
2022/08/29 10:09:56;;;;;;;6.15;2.60;;;25.10;67.70;;;;;;4973172;28;20030;-86
2022/08/29 10:12:32;;;;;;;6.72;2.70;;;25.10;66.90;;;;;;4981128;28;20025;-85
2022/08/29 10:15:00;;;;;;;4.72;2.13;;;25.30;66.70;;;;;;4975036;28;20168;-87
2022/08/29 10:20:51;;;;;;;7.30;2.97;;;25.30;66.80;;;;;;4986397;28;20033;-88
2022/08/29 10:23:48;;;;;;;6.82;2.50;;;25.20;64.60;;;;;;4979690;28;20034;-88
2022/08/29 10:26:36;;;;;;;5.57;2.00;;;25.20;65.20;;;;;;4961292;28;20053;-88
2022/08/29 10:29:34;;;;;;;6.15;2.10;;;25.60;66.00;;;;;;4965152;28;20026;-88
2022/08/29 10:32:25;;;;;;;4.68;2.42;;;25.60;65.20;;;;;;4948300;28;20501;-89
2022/08/29 10:35:05;;;;;;;4.47;1.83;;;25.60;65.70;;;;;;4987713;28;20113;-88
2022/08/29 10:37:40;;;;;;;5.47;2.20;;;25.50;65.50;;;;;;4966204;28;20061;-88
2022/08/29 10:40:05;;;;;;;6.07;2.50;;;25.50;64.80;;;;;;4966871;28;20042;-87
2022/08/29 10:42:36;;;;;;;12.20;4.30;;;25.40;64.90;;;;;;4971688;28;20450;-89
2022/08/29 10:45:02;;;;;;;7.22;2.90;;;25.40;64.80;;;;;;4987634;28;20561;-88
2022/08/29 10:47:46;;;;;;;8.88;2.42;;;25.40;63.50;;;;;;4986004;28;20105;-89
2022/08/29 10:50:29;;;;;;;7.82;2.22;;;25.50;63.30;;;;;;4982971;28;20091;-88
2022/08/29 10:53:30;;;;;;;7.35;2.53;;;25.60;62.90;;;;;;4976788;28;20037;-88
2022/08/29 10:55:58;;;;;;;6.93;2.45;;;25.50;61.20;;;;;;4989512;28;20100;-88
2022/08/29 10:58:42;;;;;;;4.88;1.90;;;25.50;61.10;;;;;;4973299;28;20490;-87
2022/08/29 11:01:26;;;;;;;9.40;2.17;;;25.50;62.00;;;;;;4990044;28;20493;-87
2022/08/29 11:03:57;;;;;;;5.43;2.60;;;25.50;61.10;;;;;;4983679;28;20105;-89
2022/08/29 11:06:25;;;;;;;7.47;2.30;;;25.50;60.10;;;;;;4972286;28;20113;-86
2022/08/29 11:09:07;;;;;;;6.78;2.22;;;25.60;61.50;;;;;;4978817;28;20041;-86
2022/08/29 11:11:33;;;;;;;5.05;2.22;;;25.60;61.30;;;;;;4998956;28;20025;-89
2022/08/29 11:14:05;;;;;;;4.00;1.77;;;25.90;61.30;;;;;;4980996;28;20045;-88
2022/08/29 11:16:45;;;;;;;5.57;2.47;;;25.80;63.00;;;;;;4959560;28;20034;-87
2022/08/29 11:19:30;;;;;;;5.75;1.98;;;25.60;60.00;;;;;;4962470;28;20030;-88
2022/08/29 11:22:01;;;;;;;5.25;1.98;;;25.40;60.00;;;;;;4984961;28;20044;-88
2022/08/29 11:24:34;;;;;;;8.57;2.60;;;25.40;60.50;;;;;;4975394;28;20417;-86
2022/08/29 11:27:15;;;;;;;9.85;2.70;;;25.50;59.00;;;;;;4965247;28;20033;-88
2022/08/29 11:29:40;;;;;;;7.57;2.45;;;25.50;59.40;;;;;;4989280;28;21039;-88
2022/08/29 11:32:22;;;;;;;4.55;2.17;;;25.50;59.10;;;;;;4986485;28;20113;-86
2022/08/29 11:35:08;;;;;;;6.90;2.17;;;25.90;60.30;;;;;;4974106;28;20549;-88
2022/08/29 11:38:08;;;;;;;7.25;2.63;;;25.90;59.80;;;;;;4978164;28;20053;-84
2022/08/29 11:40:47;;;;;;;4.40;2.03;;;26.40;59.70;;;;;;4993272;28;20038;-89
2022/08/29 11:43:14;;;;;;;4.68;2.58;;;26.10;60.10;;;;;;4981636;28;20034;-90
2022/08/29 11:45:41;;;;;;;5.13;2.00;;;26.00;59.20;;;;;;4977844;28;20030;-90
2022/08/29 11:48:28;;;;;;;7.18;2.55;;;26.40;60.50;;;;;;4961064;28;20048;-90
2022/08/29 11:50:54;;;;;;;7.22;2.75;;;26.60;57.40;;;;;;4974490;28;20033;-85
2022/08/29 11:53:21;;;;;;;6.18;2.90;;;26.40;58.10;;;;;;4977871;28;20038;-90
2022/08/29 11:56:11;;;;;;;9.30;2.90;;;26.30;57.30;;;;;;4985031;28;20040;-91
2022/08/29 11:58:39;;;;;;;5.85;2.20;;;26.20;57.10;;;;;;4309846;28;10000635;-89
2022/08/29 12:01:05;;;;;;;8.07;2.28;;;26.50;58.70;;;;;;4987049;28;20053;-87
2022/08/29 12:03:35;;;;;;;2.90;1.90;;;26.50;57.60;;;;;;4949250;28;20041;-90
2022/08/29 12:06:30;;;;;;;3.92;2.55;;;26.80;58.00;;;;;;4990874;28;20026;-91
2022/08/29 12:09:00;;;;;;;3.88;2.05;;;27.20;58.10;;;;;;4950725;28;20513;-89
2022/08/29 12:12:04;;;;;;;8.75;3.60;;;28.10;57.60;;;;;;4976456;28;20499;-89
2022/08/29 12:14:49;;;;;;;5.25;2.85;;;27.30;55.00;;;;;;4945114;28;20073;-91
2022/08/29 12:17:23;;;;;;;3.20;1.70;;;26.70;54.60;;;;;;4966465;28;20375;-89
2022/08/29 12:19:52;;;;;;;6.80;2.65;;;27.00;58.90;;;;;;4978567;28;20034;-89
2022/08/29 12:22:42;;;;;;;7.03;2.53;;;26.90;56.40;;;;;;4968517;28;20026;-90
2022/08/29 12:25:46;;;;;;;5.32;2.45;;;27.10;57.90;;;;;;4989076;28;20046;-89
2022/08/29 12:28:19;;;;;;;7.53;2.72;;;26.90;54.40;;;;;;4970775;28;20089;-88
2022/08/29 12:30:47;;;;;;;4.35;2.47;;;27.00;56.20;;;;;;4974877;28;22012;-87
2022/08/29 12:33:19;;;;;;;4.22;2.13;;;26.90;55.50;;;;;;4982206;28;20367;-87
2022/08/29 12:36:26;;;;;;;4.35;1.90;;;27.70;56.50;;;;;;4979357;28;20037;-87
2022/08/29 12:39:26;;;;;;;6.22;2.92;;;27.90;55.80;;;;;;4909165;29;20044;-88
2022/08/29 12:42:10;;;;;;;4.53;2.65;;;27.30;54.80;;;;;;4959318;28;20034;-87
2022/08/29 12:44:38;;;;;;;5.78;2.17;;;27.00;55.00;;;;;;4990102;28;20042;-87
2022/08/29 12:47:09;;;;;;;3.75;2.40;;;26.90;55.10;;;;;;4974535;28;20117;-87
2022/08/29 12:49:50;;;;;;;4.85;1.98;;;28.10;56.50;;;;;;4970152;28;20464;-88
2022/08/29 12:52:25;;;;;;;9.50;2.85;;;28.20;55.40;;;;;;4968320;28;20045;-85
2022/08/29 12:54:51;;;;;;;6.22;2.38;;;27.90;55.30;;;;;;4956664;28;20030;-87
2022/08/29 12:57:30;;;;;;;5.22;1.95;;;29.10;53.80;;;;;;4975176;28;20057;-88
2022/08/29 12:59:56;;;;;;;4.25;2.10;;;28.40;54.20;;;;;;4985974;28;20386;-88
2022/08/29 13:02:33;;;;;;;3.58;1.92;;;28.00;55.60;;;;;;4978352;28;20034;-89
2022/08/29 13:04:59;;;;;;;8.82;3.08;;;27.60;54.70;;;;;;4959873;28;20046;-89